Time;durP1;ratioP1;P1;durP2;ratioP2;P2;SDS_P1;SDS_P2;PMS_P1;PMS_P2;Temp;Humidity;BMP_temperature;BMP_pressure;BME280_temperature;BME280_humidity;BME280_pressure;Samples;Min_cycle;Max_cycle;Signal;HPM_P1;HPM_P2
2023/01/06 00:02:25;;;;;;;6.90;6.17;;;9.20;99.90;;;;;;5074458;28;20226;-86
2023/01/06 00:04:51;;;;;;;7.63;6.30;;;9.10;99.90;;;;;;5073368;28;20217;-89
2023/01/06 00:07:17;;;;;;;7.23;6.07;;;9.10;99.90;;;;;;5073302;28;20183;-86
2023/01/06 00:09:43;;;;;;;7.47;6.33;;;9.10;99.90;;;;;;5073437;28;20701;-86
2023/01/06 00:12:09;;;;;;;6.30;5.70;;;9.10;99.90;;;;;;5067198;28;20197;-85
2023/01/06 00:14:35;;;;;;;7.67;5.90;;;9.00;99.90;;;;;;5056942;28;20226;-87
2023/01/06 00:17:01;;;;;;;7.17;6.00;;;9.00;99.90;;;;;;5055497;28;20231;-87
2023/01/06 00:19:27;;;;;;;6.80;5.83;;;9.00;99.90;;;;;;5055737;28;20271;-88
2023/01/06 00:21:52;;;;;;;5.93;5.33;;;8.90;99.90;;;;;;5060832;28;20178;-88
2023/01/06 00:24:21;;;;;;;7.17;5.90;;;8.90;99.90;;;;;;5063378;28;20175;-86
2023/01/06 00:26:47;;;;;;;7.13;5.37;;;8.70;99.90;;;;;;5074746;28;20255;-87
2023/01/06 00:29:12;;;;;;;7.07;6.20;;;8.70;99.90;;;;;;5073500;28;20717;-87
2023/01/06 00:31:38;;;;;;;7.13;5.93;;;8.60;99.90;;;;;;5077027;28;20626;-85
2023/01/06 00:34:04;;;;;;;6.17;5.67;;;8.60;99.90;;;;;;5077396;28;20534;-85
2023/01/06 00:36:30;;;;;;;6.13;5.50;;;8.60;99.90;;;;;;5077680;28;20189;-85
2023/01/06 00:38:56;;;;;;;6.90;5.67;;;8.50;99.90;;;;;;5079604;28;20655;-85
2023/01/06 00:44:07;;;;;;;6.70;5.53;;;8.50;99.90;;;;;;5085659;28;20170;-86
2023/01/06 00:46:33;;;;;;;7.63;5.60;;;8.50;99.90;;;;;;5088538;28;20186;-88
2023/01/06 00:49:00;;;;;;;5.97;5.37;;;8.40;99.90;;;;;;5076723;28;20211;-86
2023/01/06 00:51:27;;;;;;;6.10;5.60;;;8.40;99.90;;;;;;5071163;28;20178;-86
2023/01/06 00:53:52;;;;;;;7.33;5.73;;;8.50;99.90;;;;;;5079100;28;20179;-85
2023/01/06 00:56:18;;;;;;;6.23;5.37;;;8.40;99.90;;;;;;5059528;28;20236;-86
2023/01/06 00:58:49;;;;;;;5.90;5.30;;;8.40;99.90;;;;;;5059166;28;20189;-88
2023/01/06 01:01:14;;;;;;;5.87;5.27;;;8.40;99.90;;;;;;5077369;28;20163;-87
2023/01/06 01:03:40;;;;;;;8.23;5.77;;;8.50;99.90;;;;;;5059692;28;20180;-87
2023/01/06 01:06:08;;;;;;;6.33;5.40;;;8.40;99.90;;;;;;5059471;28;20271;-86
2023/01/06 01:08:34;;;;;;;6.13;5.53;;;8.40;99.90;;;;;;5059932;28;20270;-86
2023/01/06 01:12:08;;;;;;;6.20;5.57;;;8.40;99.90;;;;;;5084577;28;20176;-86
2023/01/06 01:13:57;;;;;;;7.70;5.33;;;8.40;99.90;;;;;;5090215;28;20175;-85
2023/01/06 01:16:23;;;;;;;6.27;5.30;;;8.40;99.90;;;;;;5083671;28;20162;-85
2023/01/06 01:18:49;;;;;;;7.67;5.53;;;8.30;99.90;;;;;;5059285;28;20178;-86
2023/01/06 01:21:15;;;;;;;6.03;5.43;;;8.30;99.90;;;;;;5058960;28;20183;-87
2023/01/06 01:23:40;;;;;;;6.00;5.37;;;8.30;99.90;;;;;;5064603;28;20247;-85
2023/01/06 01:26:09;;;;;;;7.03;4.90;;;8.20;99.90;;;;;;5096075;28;20171;-86
2023/01/06 01:28:35;;;;;;;6.17;4.83;;;8.30;99.90;;;;;;5094524;28;20175;-86
2023/01/06 01:31:02;;;;;;;5.97;4.77;;;8.20;99.90;;;;;;5066849;28;20208;-86
2023/01/06 01:33:29;;;;;;;5.07;4.67;;;8.20;99.90;;;;;;5078607;28;20315;-86
2023/01/06 01:35:55;;;;;;;5.90;4.87;;;8.20;99.90;;;;;;5077712;28;20629;-85
2023/01/06 01:38:21;;;;;;;5.80;4.83;;;8.30;99.90;;;;;;5076318;28;20175;-85
2023/01/06 01:40:49;;;;;;;5.27;4.77;;;8.40;99.90;;;;;;5088140;28;20181;-86
2023/01/06 01:43:16;;;;;;;6.60;5.03;;;8.40;99.90;;;;;;5079370;28;20191;-87
2023/01/06 01:45:44;;;;;;;6.00;5.03;;;8.40;99.90;;;;;;5057574;28;20546;-88
2023/01/06 01:48:20;;;;;;;5.83;4.80;;;8.40;99.90;;;;;;5057855;28;20182;-86
2023/01/06 01:50:51;;;;;;;6.77;4.93;;;8.40;99.90;;;;;;5057993;28;20217;-87
2023/01/06 01:53:22;;;;;;;5.43;4.70;;;8.40;99.90;;;;;;5084558;28;20634;-88
2023/01/06 01:55:52;;;;;;;6.10;4.80;;;8.50;99.90;;;;;;5076419;28;20194;-88
2023/01/06 01:58:23;;;;;;;5.23;4.73;;;8.50;99.90;;;;;;5057463;28;20322;-89
2023/01/06 02:00:50;;;;;;;5.50;4.47;;;8.50;99.90;;;;;;5075360;28;20224;-88
2023/01/06 02:03:23;;;;;;;4.90;4.50;;;8.50;99.90;;;;;;5075342;28;20634;-87
2023/01/06 02:05:58;;;;;;;5.27;4.50;;;8.50;99.90;;;;;;5057565;28;20183;-86
2023/01/06 02:08:43;;;;;;;5.57;4.73;;;8.50;99.90;;;;;;5057644;28;20196;-86
2023/01/06 02:11:09;;;;;;;6.87;4.93;;;8.60;99.90;;;;;;5079174;28;20187;-88
2023/01/06 02:13:39;;;;;;;5.00;4.53;;;8.60;99.90;;;;;;5074650;28;20236;-86
2023/01/06 02:16:28;;;;;;;5.23;4.73;;;8.50;99.90;;;;;;5072102;28;20234;-85
2023/01/06 02:19:11;;;;;;;5.10;4.60;;;8.60;99.90;;;;;;5076039;28;20163;-86
2023/01/06 02:22:18;;;;;;;7.20;4.57;;;8.60;99.90;;;;;;5058667;28;20170;-85
2023/01/06 02:25:08;;;;;;;4.77;4.33;;;8.60;99.90;;;;;;5041253;28;20216;-86
2023/01/06 02:27:51;;;;;;;5.10;4.60;;;8.60;99.90;;;;;;5078587;28;20664;-87
2023/01/06 02:30:32;;;;;;;4.93;4.53;;;8.50;99.90;;;;;;5085033;28;20208;-86
2023/01/06 02:32:58;;;;;;;4.87;4.47;;;8.50;99.90;;;;;;5074848;28;20255;-89
2023/01/06 02:35:48;;;;;;;5.73;4.50;;;8.40;99.90;;;;;;5056643;28;20179;-86
2023/01/06 02:38:25;;;;;;;5.97;4.53;;;8.40;99.90;;;;;;5056703;28;20285;-88
2023/01/06 02:41:28;;;;;;;5.23;4.73;;;8.50;99.90;;;;;;5074419;28;20154;-87
2023/01/06 02:44:05;;;;;;;4.97;4.20;;;8.40;99.90;;;;;;5074247;28;20171;-86
2023/01/06 02:46:40;;;;;;;5.33;4.23;;;8.40;99.90;;;;;;5074320;28;20162;-85
2023/01/06 02:49:12;;;;;;;4.93;4.43;;;8.40;99.90;;;;;;5079706;28;20281;-87
2023/01/06 02:51:54;;;;;;;5.33;4.60;;;8.30;99.90;;;;;;5076773;28;20171;-87
2023/01/06 02:54:40;;;;;;;4.80;4.40;;;8.40;99.90;;;;;;5073860;28;20177;-87
2023/01/06 02:57:23;;;;;;;4.87;4.47;;;8.30;99.90;;;;;;5074487;28;20212;-83
2023/01/06 03:00:03;;;;;;;4.60;4.20;;;8.30;99.90;;;;;;5075531;28;20195;-87
2023/01/06 03:02:31;;;;;;;5.43;4.87;;;8.30;99.90;;;;;;5057866;28;20170;-87
2023/01/06 03:05:02;;;;;;;5.00;4.50;;;8.20;99.90;;;;;;5069166;28;20205;-84
2023/01/06 03:07:31;;;;;;;5.93;4.07;;;8.20;99.90;;;;;;5072781;28;20171;-87
2023/01/06 03:09:59;;;;;;;4.20;3.90;;;8.10;99.90;;;;;;5091853;28;20218;-85
2023/01/06 03:12:34;;;;;;;4.87;4.20;;;8.10;99.90;;;;;;5062967;28;20183;-87
2023/01/06 03:15:00;;;;;;;4.43;4.03;;;8.00;99.90;;;;;;5097507;28;20243;-87
2023/01/06 03:17:26;;;;;;;5.37;4.00;;;8.10;99.90;;;;;;5073393;28;20205;-85
2023/01/06 03:19:52;;;;;;;5.77;4.30;;;8.00;99.90;;;;;;5066455;28;20193;-83
2023/01/06 03:22:19;;;;;;;4.53;4.13;;;8.00;99.90;;;;;;5079229;28;20184;-85
2023/01/06 03:24:46;;;;;;;4.20;3.80;;;8.00;99.90;;;;;;5074339;28;20248;-85
2023/01/06 03:27:11;;;;;;;4.17;3.80;;;7.90;99.90;;;;;;5074091;28;20177;-85
2023/01/06 03:29:38;;;;;;;3.97;3.60;;;7.80;99.90;;;;;;5073426;28;20209;-86
2023/01/06 03:32:26;;;;;;;4.27;3.87;;;7.50;99.90;;;;;;5073413;28;20174;-85
2023/01/06 03:35:13;;;;;;;3.70;3.40;;;7.70;99.90;;;;;;5073850;28;20185;-86
2023/01/06 03:38:12;;;;;;;3.10;2.90;;;7.60;99.90;;;;;;5055429;28;20205;-88
2023/01/06 03:40:55;;;;;;;3.47;3.27;;;7.50;99.90;;;;;;5055680;28;20173;-89
2023/01/06 03:43:57;;;;;;;3.53;3.23;;;7.50;99.90;;;;;;5055318;28;20264;-86
2023/01/06 03:46:37;;;;;;;3.27;3.07;;;7.40;99.90;;;;;;5073562;28;20165;-86
2023/01/06 03:49:08;;;;;;;3.03;2.80;;;7.50;99.90;;;;;;5056151;28;20228;-87
2023/01/06 03:51:42;;;;;;;3.87;3.00;;;7.50;99.90;;;;;;5076392;28;20233;-87
2023/01/06 03:54:29;;;;;;;4.20;2.90;;;7.50;99.90;;;;;;5084475;28;20166;-87
2023/01/06 03:57:07;;;;;;;3.07;2.87;;;7.60;99.90;;;;;;5075151;28;20622;-86
2023/01/06 03:59:37;;;;;;;3.03;2.80;;;7.70;99.90;;;;;;5056956;28;20197;-87
2023/01/06 04:02:04;;;;;;;3.17;2.97;;;7.70;99.90;;;;;;5077999;28;20177;-87
2023/01/06 04:04:30;;;;;;;3.40;3.10;;;7.70;99.90;;;;;;5073391;28;20174;-86
2023/01/06 04:06:56;;;;;;;3.97;3.10;;;7.70;99.90;;;;;;5082433;28;20166;-87
2023/01/06 04:09:22;;;;;;;3.77;3.47;;;7.70;99.90;;;;;;5089710;28;20206;-88
2023/01/06 04:14:32;;;;;;;3.53;3.23;;;7.60;99.90;;;;;;5076627;28;20229;-88
2023/01/06 04:16:57;;;;;;;4.67;3.40;;;7.60;99.90;;;;;;5059062;28;20935;-88
2023/01/06 04:19:23;;;;;;;3.37;3.13;;;7.60;99.90;;;;;;5059115;28;20193;-85
2023/01/06 04:21:49;;;;;;;3.33;3.13;;;7.70;99.90;;;;;;5085111;28;20176;-85
2023/01/06 04:24:15;;;;;;;3.57;3.27;;;7.60;99.90;;;;;;5061935;28;20186;-87
2023/01/06 04:26:41;;;;;;;4.73;3.37;;;7.60;99.90;;;;;;5076776;28;20545;-86
2023/01/06 04:29:06;;;;;;;4.17;3.47;;;7.60;99.90;;;;;;5076514;28;20208;-85
2023/01/06 04:31:32;;;;;;;4.43;4.03;;;7.50;99.90;;;;;;5058528;28;20196;-86
2023/01/06 04:33:58;;;;;;;4.20;3.70;;;7.50;99.90;;;;;;5076388;28;20162;-87
2023/01/06 04:36:24;;;;;;;4.40;4.00;;;7.50;99.90;;;;;;5058516;28;20178;-88
2023/01/06 04:38:51;;;;;;;4.93;4.53;;;7.50;99.90;;;;;;5082320;28;20620;-86
2023/01/06 04:41:17;;;;;;;4.33;3.93;;;7.50;99.90;;;;;;5058485;28;20552;-86
2023/01/06 04:43:42;;;;;;;5.37;4.53;;;7.30;99.90;;;;;;5076225;28;20178;-84
2023/01/06 04:46:08;;;;;;;5.80;5.30;;;7.30;99.90;;;;;;5058095;28;20177;-89
2023/01/06 04:48:34;;;;;;;5.10;4.50;;;7.30;99.90;;;;;;5080368;28;20166;-86
2023/01/06 04:51:08;;;;;;;4.87;4.47;;;7.30;99.90;;;;;;5080685;28;20308;-86
2023/01/06 04:53:36;;;;;;;5.30;4.77;;;7.40;99.90;;;;;;5058814;28;20172;-85
2023/01/06 04:56:07;;;;;;;6.00;5.33;;;7.40;99.90;;;;;;5076734;28;20176;-85
2023/01/06 04:58:33;;;;;;;6.13;5.00;;;7.30;99.90;;;;;;5084532;28;20188;-84
2023/01/06 05:01:05;;;;;;;5.27;4.77;;;7.30;99.90;;;;;;5097854;28;20174;-86
2023/01/06 05:03:31;;;;;;;5.90;5.30;;;7.20;99.90;;;;;;5098954;28;20227;-84
2023/01/06 05:06:02;;;;;;;7.43;5.17;;;7.20;99.90;;;;;;5089024;28;20179;-85
2023/01/06 05:08:30;;;;;;;6.60;5.03;;;7.10;99.90;;;;;;5081139;28;20222;-84
2023/01/06 05:11:07;;;;;;;6.20;5.63;;;7.10;99.90;;;;;;5078817;28;20331;-88
2023/01/06 05:13:34;;;;;;;7.83;5.27;;;7.10;99.90;;;;;;5076854;28;20532;-86
2023/01/06 05:16:00;;;;;;;6.50;5.63;;;7.10;99.90;;;;;;5075859;28;20220;-86
2023/01/06 05:18:26;;;;;;;5.20;4.70;;;7.00;99.90;;;;;;5058611;28;20183;-85
2023/01/06 05:20:53;;;;;;;5.30;4.80;;;7.00;99.90;;;;;;5090943;28;20229;-86
2023/01/06 05:23:19;;;;;;;5.60;5.10;;;7.00;99.90;;;;;;5074534;28;20176;-88
2023/01/06 05:25:46;;;;;;;5.53;5.00;;;7.00;99.90;;;;;;5067168;28;20232;-89
2023/01/06 05:28:12;;;;;;;5.90;5.33;;;7.00;99.90;;;;;;5059089;28;20264;-89
2023/01/06 05:30:38;;;;;;;5.37;4.83;;;7.00;99.90;;;;;;5060644;28;20237;-87
2023/01/06 05:33:04;;;;;;;5.57;4.50;;;7.00;99.90;;;;;;5084162;28;20170;-88
2023/01/06 05:35:33;;;;;;;6.13;4.93;;;7.00;99.90;;;;;;5058852;28;20198;-87
2023/01/06 05:37:59;;;;;;;5.93;5.00;;;7.00;99.90;;;;;;5076897;28;20172;-89
2023/01/06 05:40:25;;;;;;;5.50;5.03;;;7.00;99.90;;;;;;5077846;28;20169;-87
2023/01/06 05:42:54;;;;;;;5.40;4.83;;;7.00;99.90;;;;;;5089603;28;20226;-86
2023/01/06 05:45:21;;;;;;;5.97;5.23;;;6.90;99.90;;;;;;5085504;28;20174;-87
2023/01/06 05:47:47;;;;;;;4.73;4.33;;;7.00;99.90;;;;;;5081401;28;20221;-86
2023/01/06 05:50:13;;;;;;;5.00;4.50;;;6.90;99.90;;;;;;5075578;28;20585;-85
2023/01/06 05:52:39;;;;;;;4.93;4.43;;;6.90;99.90;;;;;;5075459;28;20195;-87
2023/01/06 05:55:05;;;;;;;5.30;4.80;;;7.00;99.90;;;;;;5079714;28;20653;-87
2023/01/06 05:57:35;;;;;;;5.10;4.60;;;6.90;99.90;;;;;;5078604;28;20326;-86
2023/01/06 06:00:04;;;;;;;6.70;4.83;;;6.90;99.90;;;;;;5075255;28;20185;-86
2023/01/06 06:02:30;;;;;;;4.90;4.20;;;6.90;99.90;;;;;;5074819;28;20625;-86
2023/01/06 06:04:56;;;;;;;4.70;4.30;;;7.00;99.90;;;;;;5074760;28;20695;-87
2023/01/06 06:07:22;;;;;;;3.97;3.63;;;6.80;99.90;;;;;;5080640;28;20381;-84
2023/01/06 06:09:48;;;;;;;5.17;4.67;;;6.70;99.90;;;;;;5076731;28;20206;-85
2023/01/06 06:12:13;;;;;;;4.83;4.43;;;6.70;99.90;;;;;;5075158;28;20265;-86
2023/01/06 06:14:39;;;;;;;4.40;4.10;;;6.70;99.90;;;;;;5074772;28;20625;-86
2023/01/06 06:17:05;;;;;;;4.30;3.90;;;6.60;99.90;;;;;;5061917;28;20586;-86
2023/01/06 06:19:31;;;;;;;4.10;3.70;;;6.60;99.90;;;;;;5081414;28;20176;-86
2023/01/06 06:21:56;;;;;;;4.67;4.07;;;6.50;99.90;;;;;;5074940;28;20279;-85
2023/01/06 06:24:22;;;;;;;5.60;4.57;;;6.60;99.90;;;;;;5074853;28;20185;-87
2023/01/06 06:26:48;;;;;;;4.13;3.77;;;6.60;99.90;;;;;;5075049;28;20620;-86
2023/01/06 06:29:14;;;;;;;4.53;4.13;;;6.60;99.90;;;;;;5055974;28;20331;-87
2023/01/06 06:31:40;;;;;;;3.90;3.60;;;6.60;99.90;;;;;;5069976;28;20691;-85
2023/01/06 06:34:06;;;;;;;4.17;3.80;;;6.60;99.90;;;;;;5074259;28;20186;-86
2023/01/06 06:36:32;;;;;;;4.77;4.33;;;6.50;99.90;;;;;;5056476;28;20544;-87
2023/01/06 06:38:59;;;;;;;4.73;4.30;;;6.40;99.90;;;;;;5074016;28;20516;-85
2023/01/06 06:41:25;;;;;;;4.73;4.10;;;6.40;99.90;;;;;;5056181;28;20267;-86
2023/01/06 06:43:52;;;;;;;4.50;3.97;;;6.40;99.90;;;;;;5074672;28;20255;-87
2023/01/06 06:46:18;;;;;;;6.80;4.63;;;6.40;99.90;;;;;;5058191;28;20187;-85
2023/01/06 06:48:44;;;;;;;4.00;3.70;;;6.30;99.90;;;;;;5064155;28;20156;-85
2023/01/06 06:51:18;;;;;;;4.53;4.13;;;6.30;99.90;;;;;;5094090;28;20253;-85
2023/01/06 06:53:44;;;;;;;4.43;4.03;;;6.30;99.90;;;;;;5076244;28;20185;-87
2023/01/06 06:56:11;;;;;;;4.80;4.30;;;6.30;99.90;;;;;;5066109;28;20306;-87
2023/01/06 06:58:37;;;;;;;4.17;3.80;;;6.30;99.90;;;;;;5077128;28;20201;-85
2023/01/06 07:01:13;;;;;;;4.97;4.50;;;6.20;99.90;;;;;;5074608;28;20195;-86
2023/01/06 07:03:40;;;;;;;6.17;3.93;;;6.20;99.90;;;;;;5066577;28;20174;-86
2023/01/06 07:06:08;;;;;;;5.57;3.90;;;6.20;99.90;;;;;;5062839;28;20199;-88
2023/01/06 07:08:34;;;;;;;4.30;3.87;;;6.10;99.90;;;;;;5059268;28;20257;-86
2023/01/06 07:11:00;;;;;;;4.43;4.07;;;6.20;99.90;;;;;;5077780;28;20683;-84
2023/01/06 07:13:26;;;;;;;4.87;4.37;;;6.30;99.90;;;;;;5076256;28;20180;-85
2023/01/06 07:15:52;;;;;;;5.77;4.27;;;6.40;99.90;;;;;;5056764;28;20263;-84
2023/01/06 07:18:18;;;;;;;4.50;4.10;;;6.50;99.90;;;;;;5074562;28;20183;-85
2023/01/06 07:20:49;;;;;;;4.87;4.47;;;6.70;99.90;;;;;;5058324;28;20201;-85
2023/01/06 07:23:15;;;;;;;12.10;8.90;;;6.80;99.90;;;;;;5062366;28;20210;-85
2023/01/06 07:25:41;;;;;;;6.13;4.63;;;6.80;99.90;;;;;;5059635;28;20632;-85
2023/01/06 07:28:08;;;;;;;9.03;5.03;;;6.80;99.90;;;;;;5079919;28;20168;-88
2023/01/06 07:30:34;;;;;;;5.03;4.53;;;6.80;99.90;;;;;;5081464;28;20233;-84
2023/01/06 07:33:00;;;;;;;4.60;4.17;;;6.80;99.90;;;;;;5073470;28;20226;-84
2023/01/06 07:35:27;;;;;;;4.87;4.20;;;6.90;99.90;;;;;;5080358;28;20181;-83
2023/01/06 07:37:52;;;;;;;4.20;3.80;;;7.00;99.90;;;;;;5084604;28;20209;-83
2023/01/06 07:40:18;;;;;;;4.83;4.03;;;7.10;99.90;;;;;;5075160;28;20172;-84
2023/01/06 07:42:44;;;;;;;5.43;4.47;;;7.20;99.90;;;;;;5072241;28;20240;-84
2023/01/06 07:45:11;;;;;;;4.63;4.23;;;7.40;99.90;;;;;;5064591;28;20181;-86
2023/01/06 07:47:36;;;;;;;8.07;4.90;;;7.50;99.90;;;;;;5066251;28;20655;-83
2023/01/06 07:50:03;;;;;;;5.97;5.20;;;7.50;99.90;;;;;;5058128;28;20211;-83
2023/01/06 07:52:30;;;;;;;5.43;4.80;;;7.60;99.90;;;;;;5035479;28;20208;-86
2023/01/06 07:54:58;;;;;;;4.87;4.37;;;7.70;99.90;;;;;;5052851;28;20174;-84
2023/01/06 07:57:25;;;;;;;5.33;4.50;;;7.70;99.90;;;;;;5034783;28;20221;-84
2023/01/06 07:59:51;;;;;;;3.80;3.50;;;7.70;99.90;;;;;;5052218;28;20542;-84
2023/01/06 08:02:17;;;;;;;3.47;3.20;;;7.70;99.90;;;;;;5034688;28;20185;-84
2023/01/06 08:04:43;;;;;;;5.33;4.07;;;7.70;99.90;;;;;;5037270;28;20211;-84
2023/01/06 08:07:08;;;;;;;4.27;3.83;;;7.70;99.90;;;;;;5035188;28;20174;-84
2023/01/06 08:09:34;;;;;;;5.20;4.07;;;7.80;99.90;;;;;;5053035;28;20210;-83
2023/01/06 08:12:00;;;;;;;4.23;3.83;;;7.90;99.90;;;;;;5051557;28;20201;-85
2023/01/06 08:14:26;;;;;;;3.80;3.50;;;7.90;99.90;;;;;;5051474;28;20234;-85
2023/01/06 08:16:51;;;;;;;5.17;3.40;;;8.00;99.90;;;;;;5051631;28;20201;-86
2023/01/06 08:19:17;;;;;;;4.20;3.80;;;8.00;99.90;;;;;;5052064;28;20172;-85
2023/01/06 08:21:43;;;;;;;6.77;4.73;;;8.10;99.90;;;;;;5052240;28;20661;-86
2023/01/06 08:24:09;;;;;;;8.67;5.03;;;8.10;99.90;;;;;;5052728;28;20662;-86
2023/01/06 08:26:34;;;;;;;6.50;4.50;;;8.10;99.90;;;;;;5052649;28;20203;-87
2023/01/06 08:29:00;;;;;;;6.00;4.50;;;8.20;99.90;;;;;;5034394;28;20187;-88
2023/01/06 08:31:26;;;;;;;4.37;3.97;;;8.30;99.90;;;;;;5053026;28;20172;-87
2023/01/06 08:33:52;;;;;;;4.20;3.80;;;8.30;99.90;;;;;;5059621;28;20184;-86
2023/01/06 08:36:20;;;;;;;3.50;3.20;;;8.40;99.90;;;;;;5055606;28;20226;-88
2023/01/06 08:38:46;;;;;;;4.03;3.67;;;8.40;99.90;;;;;;5078107;28;20172;-86
2023/01/06 08:41:12;;;;;;;4.40;4.00;;;8.50;99.90;;;;;;5084754;28;20191;-87
2023/01/06 08:43:40;;;;;;;3.67;3.37;;;8.50;99.90;;;;;;5077056;28;20176;-89
2023/01/06 08:46:12;;;;;;;3.93;3.57;;;8.60;99.90;;;;;;5059096;28;20206;-87
2023/01/06 08:48:37;;;;;;;7.30;4.80;;;8.60;99.90;;;;;;5087427;28;20218;-88
2023/01/06 08:51:13;;;;;;;5.57;5.03;;;8.60;99.90;;;;;;5057939;28;20257;-88
2023/01/06 08:53:39;;;;;;;5.80;5.20;;;8.70;99.90;;;;;;5062235;28;20604;-87
2023/01/06 08:56:12;;;;;;;4.80;4.33;;;8.80;99.90;;;;;;5079079;28;20205;-86
2023/01/06 08:58:41;;;;;;;6.43;4.57;;;8.80;99.90;;;;;;5059389;28;20226;-86
2023/01/06 09:01:18;;;;;;;5.03;3.83;;;8.90;99.90;;;;;;5061047;28;20235;-86
2023/01/06 09:03:44;;;;;;;3.10;2.80;;;9.00;99.90;;;;;;5070188;28;20230;-85
2023/01/06 09:06:10;;;;;;;2.70;2.50;;;9.00;99.90;;;;;;5086351;28;20230;-87
2023/01/06 09:08:36;;;;;;;2.43;2.27;;;9.00;99.90;;;;;;5071311;28;20194;-85
2023/01/06 09:11:06;;;;;;;2.10;2.00;;;9.10;99.90;;;;;;5071076;28;20209;-86
2023/01/06 09:13:33;;;;;;;2.10;2.00;;;9.00;99.90;;;;;;5065185;28;20265;-86
2023/01/06 09:15:59;;;;;;;2.20;2.10;;;9.10;99.90;;;;;;5059839;28;20316;-87
2023/01/06 09:18:25;;;;;;;2.53;2.33;;;9.10;99.90;;;;;;5058393;28;20204;-86
2023/01/06 09:20:50;;;;;;;2.10;2.00;;;9.20;99.90;;;;;;5083856;28;20188;-86
2023/01/06 09:23:16;;;;;;;2.60;2.47;;;9.20;99.90;;;;;;5060146;28;20184;-86
2023/01/06 09:25:42;;;;;;;4.23;3.83;;;9.20;99.90;;;;;;5075502;28;20353;-84
2023/01/06 09:28:09;;;;;;;4.43;3.80;;;9.20;99.90;;;;;;5077033;28;20176;-87
2023/01/06 09:30:35;;;;;;;4.60;4.20;;;9.20;99.90;;;;;;5058433;28;20217;-86
2023/01/06 09:33:01;;;;;;;7.23;5.00;;;9.20;99.90;;;;;;5037151;28;20490;-84
2023/01/06 09:35:27;;;;;;;7.07;5.40;;;9.20;99.90;;;;;;5055542;28;20227;-85
2023/01/06 09:37:52;;;;;;;6.87;6.13;;;9.20;99.90;;;;;;5055404;28;20228;-83
2023/01/06 09:40:27;;;;;;;7.83;5.70;;;9.20;99.90;;;;;;5037506;28;20190;-83
2023/01/06 09:42:58;;;;;;;6.83;5.97;;;9.30;99.90;;;;;;5055320;28;20199;-84
2023/01/06 09:45:32;;;;;;;7.23;5.70;;;9.20;99.90;;;;;;5037216;28;20224;-83
2023/01/06 09:48:01;;;;;;;7.23;6.53;;;9.30;99.90;;;;;;5054259;28;20511;-82
2023/01/06 09:50:40;;;;;;;6.73;6.00;;;9.30;99.90;;;;;;5036442;28;20212;-84
2023/01/06 09:53:13;;;;;;;6.87;5.97;;;9.30;99.90;;;;;;5054596;28;20206;-85
2023/01/06 09:55:49;;;;;;;9.17;6.07;;;9.20;99.90;;;;;;5037856;28;20489;-84
2023/01/06 09:58:22;;;;;;;7.80;6.93;;;9.30;99.90;;;;;;5039799;28;20173;-84
2023/01/06 10:00:52;;;;;;;8.97;6.93;;;9.30;99.90;;;;;;5041494;28;20175;-85
2023/01/06 10:03:25;;;;;;;8.97;7.63;;;9.30;99.90;;;;;;5041812;28;20168;-84
2023/01/06 10:06:31;;;;;;;7.03;6.33;;;9.40;99.90;;;;;;5039347;28;20177;-84
2023/01/06 10:09:18;;;;;;;8.03;6.53;;;9.40;99.90;;;;;;5021369;28;20271;-87
2023/01/06 10:11:50;;;;;;;7.77;6.83;;;9.40;99.90;;;;;;5055484;28;20173;-84
2023/01/06 10:14:21;;;;;;;7.93;6.77;;;9.40;99.90;;;;;;5037178;28;20241;-85
2023/01/06 10:17:04;;;;;;;6.87;6.17;;;9.50;99.90;;;;;;5055259;28;20170;-87
2023/01/06 10:20:00;;;;;;;6.40;5.80;;;9.50;99.90;;;;;;5054745;28;20169;-85
2023/01/06 10:22:51;;;;;;;4.77;4.47;;;9.60;99.90;;;;;;5036412;28;20182;-86
2023/01/06 10:25:51;;;;;;;4.70;4.37;;;9.60;99.90;;;;;;5054407;28;20153;-84
2023/01/06 10:28:29;;;;;;;5.27;4.87;;;9.60;99.90;;;;;;5026830;28;20186;-85
2023/01/06 10:31:04;;;;;;;6.50;5.67;;;9.70;99.90;;;;;;5059376;28;20209;-84
2023/01/06 10:33:33;;;;;;;7.27;5.80;;;9.80;99.90;;;;;;5056845;28;20172;-84
2023/01/06 10:36:00;;;;;;;6.50;5.27;;;9.80;99.90;;;;;;5056623;28;20174;-84
2023/01/06 10:38:44;;;;;;;5.60;5.03;;;9.90;99.90;;;;;;5040443;28;20174;-85
2023/01/06 10:41:41;;;;;;;5.47;4.67;;;9.90;99.90;;;;;;5061673;28;20167;-86
2023/01/06 10:44:10;;;;;;;5.73;5.17;;;10.00;99.90;;;;;;5057844;28;20171;-87
2023/01/06 10:46:37;;;;;;;6.77;5.70;;;10.10;99.90;;;;;;5057674;28;20171;-86
2023/01/06 10:49:07;;;;;;;5.17;4.77;;;10.20;99.90;;;;;;5060334;28;20183;-86
2023/01/06 10:51:38;;;;;;;4.83;4.43;;;10.30;99.90;;;;;;5046265;28;20183;-85
2023/01/06 10:54:42;;;;;;;5.87;4.30;;;10.40;99.90;;;;;;5055626;28;20162;-85
2023/01/06 10:57:20;;;;;;;9.07;7.47;;;10.50;99.90;;;;;;5049850;28;20218;-87
2023/01/06 11:00:21;;;;;;;6.10;5.50;;;10.60;99.90;;;;;;5055280;28;20168;-87
2023/01/06 11:03:03;;;;;;;5.60;5.10;;;10.60;99.90;;;;;;5040878;28;20626;-86
2023/01/06 11:05:32;;;;;;;4.77;4.37;;;10.70;99.90;;;;;;5053468;28;20176;-85
2023/01/06 11:08:06;;;;;;;5.10;4.70;;;10.70;99.90;;;;;;5041853;28;20270;-86
2023/01/06 11:10:39;;;;;;;4.67;4.30;;;10.70;99.90;;;;;;5036715;28;20517;-85
2023/01/06 11:13:15;;;;;;;4.83;4.43;;;10.80;99.90;;;;;;5037200;28;20187;-85
2023/01/06 11:15:42;;;;;;;5.00;4.50;;;10.80;99.90;;;;;;5035790;28;20250;-85
2023/01/06 11:18:21;;;;;;;5.17;4.67;;;10.80;99.90;;;;;;5053952;28;20214;-85
2023/01/06 11:21:03;;;;;;;5.17;4.53;;;10.80;99.90;;;;;;5053599;28;20181;-83
2023/01/06 11:23:29;;;;;;;5.20;3.73;;;10.80;99.90;;;;;;5035722;28;20216;-85
2023/01/06 11:26:12;;;;;;;4.10;3.80;;;10.90;99.90;;;;;;5053589;28;20176;-86
2023/01/06 11:28:39;;;;;;;4.00;3.70;;;10.90;99.90;;;;;;5035715;28;20578;-85
2023/01/06 11:31:12;;;;;;;4.17;3.87;;;10.90;99.90;;;;;;5035692;28;20207;-85
2023/01/06 11:34:00;;;;;;;4.20;3.80;;;10.90;99.90;;;;;;5053355;28;20243;-85
2023/01/06 11:36:30;;;;;;;4.63;4.23;;;10.90;99.90;;;;;;5035480;28;20176;-85
2023/01/06 11:39:02;;;;;;;5.07;4.00;;;10.90;99.90;;;;;;5035372;28;20229;-85
2023/01/06 11:41:36;;;;;;;4.80;3.90;;;10.90;99.90;;;;;;5036459;28;20172;-85
2023/01/06 11:44:30;;;;;;;4.50;4.10;;;10.90;99.90;;;;;;5035708;28;20180;-87
2023/01/06 11:47:11;;;;;;;8.20;6.07;;;11.00;99.90;;;;;;5043917;28;20210;-83
2023/01/06 11:49:42;;;;;;;4.83;4.37;;;11.00;99.90;;;;;;5035921;28;20272;-86
2023/01/06 11:52:24;;;;;;;5.20;3.77;;;11.00;99.90;;;;;;5053971;28;20162;-87
2023/01/06 11:54:57;;;;;;;4.83;4.43;;;11.00;99.90;;;;;;5035841;28;20171;-84
2023/01/06 11:57:23;;;;;;;4.50;4.10;;;11.10;99.90;;;;;;5035499;28;20179;-85
2023/01/06 12:00:17;;;;;;;4.00;3.67;;;11.10;99.90;;;;;;5053550;28;20201;-85
2023/01/06 12:03:14;;;;;;;4.30;3.70;;;11.10;99.90;;;;;;5053370;28;20159;-86
2023/01/06 12:05:43;;;;;;;3.60;3.30;;;11.10;99.90;;;;;;5053840;28;20158;-86
2023/01/06 12:08:25;;;;;;;3.93;3.57;;;11.20;99.90;;;;;;5036293;28;20179;-88
2023/01/06 12:11:03;;;;;;;3.57;3.27;;;11.20;99.90;;;;;;5038151;28;20316;-84
2023/01/06 12:13:31;;;;;;;4.20;3.67;;;11.30;99.90;;;;;;5060308;28;20244;-84
2023/01/06 12:16:12;;;;;;;4.30;3.60;;;11.30;99.90;;;;;;5045981;28;20227;-84
2023/01/06 12:18:40;;;;;;;3.37;3.17;;;11.40;99.90;;;;;;5046251;28;20174;-86
2023/01/06 12:21:12;;;;;;;3.57;3.27;;;11.40;99.90;;;;;;5060997;28;20187;-85
2023/01/06 12:23:40;;;;;;;3.40;3.10;;;11.40;99.90;;;;;;5056510;28;20160;-86
2023/01/06 12:26:14;;;;;;;3.87;3.57;;;11.40;99.90;;;;;;5043327;28;20184;-86
2023/01/06 12:28:44;;;;;;;4.40;2.70;;;11.40;99.90;;;;;;5067637;28;20215;-86
2023/01/06 12:31:34;;;;;;;2.83;2.63;;;11.50;99.90;;;;;;5040926;28;20229;-87
2023/01/06 12:34:00;;;;;;;2.70;2.60;;;11.50;99.90;;;;;;5057645;28;20164;-86
2023/01/06 12:36:27;;;;;;;2.73;2.53;;;11.50;99.90;;;;;;5057589;28;20282;-86
2023/01/06 12:38:56;;;;;;;2.83;2.63;;;11.60;99.90;;;;;;5057216;28;20172;-85
2023/01/06 12:41:24;;;;;;;3.10;2.90;;;11.60;99.90;;;;;;5056538;28;20184;-85
2023/01/06 12:44:02;;;;;;;5.07;2.53;;;11.60;99.90;;;;;;5056554;28;20181;-85
2023/01/06 12:46:38;;;;;;;2.53;2.33;;;11.60;99.90;;;;;;5038826;28;20165;-86
2023/01/06 12:49:21;;;;;;;3.20;2.10;;;11.70;99.90;;;;;;5039168;28;20206;-84
2023/01/06 12:51:55;;;;;;;2.27;2.17;;;11.60;99.90;;;;;;5057383;28;20152;-84
2023/01/06 12:54:31;;;;;;;2.20;2.00;;;11.60;99.90;;;;;;5038827;28;20595;-86
2023/01/06 12:57:15;;;;;;;2.47;2.30;;;11.50;99.90;;;;;;5056764;28;20254;-84
2023/01/06 13:00:10;;;;;;;1.90;1.80;;;11.50;99.90;;;;;;5040623;28;20172;-86
2023/01/06 13:02:51;;;;;;;2.10;2.00;;;11.50;99.90;;;;;;5056211;28;20236;-84
2023/01/06 13:05:41;;;;;;;2.00;1.90;;;11.50;99.90;;;;;;5073159;28;20167;-85
2023/01/06 13:08:38;;;;;;;2.57;2.37;;;11.50;99.90;;;;;;5038574;28;20224;-85
2023/01/06 13:11:14;;;;;;;2.17;2.07;;;11.50;99.90;;;;;;5038765;28;20212;-87
2023/01/06 13:14:04;;;;;;;2.47;2.27;;;11.50;99.90;;;;;;5057248;28;20171;-85
2023/01/06 13:16:41;;;;;;;2.40;2.30;;;11.50;99.90;;;;;;5056469;28;20188;-88
2023/01/06 13:19:16;;;;;;;2.40;2.30;;;11.50;99.90;;;;;;5038323;28;20230;-85
2023/01/06 13:21:44;;;;;;;2.73;2.53;;;11.50;99.90;;;;;;5055702;28;20167;-85
2023/01/06 13:24:36;;;;;;;3.13;2.77;;;11.50;99.90;;;;;;5055685;28;20222;-84